Airfield :
LOGIN :

Register | Disclaimer

   EN    FR    IT 

 










Legend :    VFR   Marginal VFR   IFR   Intensive IFR   Very Intensive IFR
Visi :
Ceiling :
>= 8 km
>= 3000ft
5 to 8 km
1000 to 3000 ft
1500m to 5 km
500 to 1000 ft
800 to 1500m
200 to 500 ft
< 800m
< 200 ft
Symbols :   Thunderstorms  Fog  Heavy snow  Heavy precipitations  Wind > 20 kt
SIGMETs :     Misc.  Thunderstorms  Icing  Turbulence  Mountain Waves  Volcanic Ashes







- Airport Elevation : 659 ft
- IATA code : LGG


EBLG - Liège

CURRENT METAR :
  • 211750Z 27004KT 9999 BKN040 11/07 Q1029 NOSIG

EXPIRED METARs :
  • 211720Z 26005KT 9999 BKN042 11/07 Q1028 NOSIG
  • 211650Z 26005KT 9999 BKN044 11/07 Q1028 NOSIG
  • 211620Z 26005KT 9999 BKN045 12/07 Q1028 NOSIG
  • 211550Z 27006KT CAVOK 12/07 Q1028 NOSIG
  • 211520Z 28006KT CAVOK 12/07 Q1028

TAF TAF EBLG
Valid from the 21 at 18:00 until the 23 at 00:00 UTC


211709Z 2118/2224 25005KT 8000 FEW020
BECMG 2122/2124 BKN006
TEMPO 2200/2217 3000 BR BKN003
PROB40
TEMPO 2202/2210 0200 FG BKN001
BECMG 2217/2219 BKN012
No reported NOTAMs for that airfield.



MET'MAP, your aeronautical weather chart ! - Copyright ORBIFLY December 2007 - Disclaimer

ORBIFLY MET'MAP TEAM :

Programming & Development : Alexandra Zaïnal
Concept & Development : Baudouin d'Aumeries
Co-Development & Prog : Marc-Olivier Méhu
Technical & hardware support : Manuel Goepfert

Contact : metmap@orbifly.com




SOURCES & CREDITS :

   NOAA